sensor_id;sensor_type;location;lat;lon;timestamp;P1;durP1;ratioP1;P2;durP2;ratioP2
73557;SDS011;61829;53.286;10.434;2023-01-28T00:00:56;2.40;;;1.20;;
73557;SDS011;61829;53.286;10.434;2023-01-28T00:07:24;1.92;;;1.02;;
73557;SDS011;61829;53.286;10.434;2023-01-28T00:09:50;1.60;;;1.10;;
73557;SDS011;61829;53.286;10.434;2023-01-28T00:12:16;3.70;;;1.20;;
73557;SDS011;61829;53.286;10.434;2023-01-28T00:14:43;2.00;;;1.05;;
73557;SDS011;61829;53.286;10.434;2023-01-28T00:17:13;1.65;;;1.10;;
73557;SDS011;61829;53.286;10.434;2023-01-28T00:19:40;3.30;;;1.10;;
73557;SDS011;61829;53.286;10.434;2023-01-28T00:22:06;3.70;;;1.10;;
73557;SDS011;61829;53.286;10.434;2023-01-28T00:24:32;1.50;;;0.98;;
73557;SDS011;61829;53.286;10.434;2023-01-28T00:26:58;4.13;;;1.10;;
73557;SDS011;61829;53.286;10.434;2023-01-28T00:29:24;3.85;;;1.08;;
73557;SDS011;61829;53.286;10.434;2023-01-28T00:31:50;2.63;;;1.25;;
73557;SDS011;61829;53.286;10.434;2023-01-28T00:34:16;3.00;;;1.05;;
73557;SDS011;61829;53.286;10.434;2023-01-28T00:36:42;1.75;;;1.17;;
73557;SDS011;61829;53.286;10.434;2023-01-28T00:41:38;1.25;;;0.93;;
73557;SDS011;61829;53.286;10.434;2023-01-28T00:44:04;2.35;;;1.02;;
73557;SDS011;61829;53.286;10.434;2023-01-28T00:46:30;2.90;;;1.17;;
73557;SDS011;61829;53.286;10.434;2023-01-28T00:48:56;4.00;;;1.10;;
73557;SDS011;61829;53.286;10.434;2023-01-28T00:51:22;3.53;;;1.30;;
73557;SDS011;61829;53.286;10.434;2023-01-28T00:53:48;2.60;;;1.45;;
73557;SDS011;61829;53.286;10.434;2023-01-28T00:56:15;2.72;;;1.30;;
73557;SDS011;61829;53.286;10.434;2023-01-28T00:58:43;3.05;;;1.60;;
73557;SDS011;61829;53.286;10.434;2023-01-28T01:01:10;3.03;;;1.10;;
73557;SDS011;61829;53.286;10.434;2023-01-28T01:03:38;2.90;;;1.20;;
73557;SDS011;61829;53.286;10.434;2023-01-28T01:06:04;5.05;;;1.05;;
73557;SDS011;61829;53.286;10.434;2023-01-28T01:11:04;0.90;;;0.90;;
73557;SDS011;61829;53.286;10.434;2023-01-28T01:13:32;2.45;;;1.33;;
73557;SDS011;61829;53.286;10.434;2023-01-28T01:16:06;3.92;;;1.30;;
73557;SDS011;61829;53.286;10.434;2023-01-28T01:18:37;2.03;;;1.08;;
73557;SDS011;61829;53.286;10.434;2023-01-28T01:21:08;1.63;;;1.00;;
73557;SDS011;61829;53.286;10.434;2023-01-28T01:23:35;1.50;;;0.98;;
73557;SDS011;61829;53.286;10.434;2023-01-28T01:26:02;2.85;;;1.20;;
73557;SDS011;61829;53.286;10.434;2023-01-28T01:28:32;2.70;;;0.90;;
73557;SDS011;61829;53.286;10.434;2023-01-28T01:30:58;2.20;;;1.00;;
73557;SDS011;61829;53.286;10.434;2023-01-28T01:33:27;6.65;;;1.30;;
73557;SDS011;61829;53.286;10.434;2023-01-28T01:35:54;3.53;;;1.33;;
73557;SDS011;61829;53.286;10.434;2023-01-28T01:38:21;5.65;;;1.40;;
73557;SDS011;61829;53.286;10.434;2023-01-28T01:40:47;2.42;;;1.35;;
73557;SDS011;61829;53.286;10.434;2023-01-28T01:43:22;3.17;;;1.27;;
73557;SDS011;61829;53.286;10.434;2023-01-28T01:45:58;1.73;;;1.02;;
73557;SDS011;61829;53.286;10.434;2023-01-28T01:48:32;2.17;;;1.23;;
73557;SDS011;61829;53.286;10.434;2023-01-28T01:51:01;1.60;;;1.10;;
73557;SDS011;61829;53.286;10.434;2023-01-28T01:53:33;2.13;;;1.05;;
73557;SDS011;61829;53.286;10.434;2023-01-28T01:56:03;1.92;;;1.08;;
73557;SDS011;61829;53.286;10.434;2023-01-28T01:58:32;3.78;;;1.38;;
73557;SDS011;61829;53.286;10.434;2023-01-28T02:01:02;3.88;;;1.10;;
73557;SDS011;61829;53.286;10.434;2023-01-28T02:03:36;1.92;;;1.30;;
73557;SDS011;61829;53.286;10.434;2023-01-28T02:06:08;4.28;;;1.20;;
73557;SDS011;61829;53.286;10.434;2023-01-28T02:08:34;2.33;;;1.20;;
73557;SDS011;61829;53.286;10.434;2023-01-28T02:11:01;4.03;;;1.20;;
73557;SDS011;61829;53.286;10.434;2023-01-28T02:13:39;3.10;;;1.20;;
73557;SDS011;61829;53.286;10.434;2023-01-28T02:16:07;2.88;;;1.00;;
73557;SDS011;61829;53.286;10.434;2023-01-28T02:18:35;1.25;;;0.98;;
73557;SDS011;61829;53.286;10.434;2023-01-28T02:27:23;1.20;;;0.88;;
73557;SDS011;61829;53.286;10.434;2023-01-28T02:30:14;3.15;;;1.30;;
73557;SDS011;61829;53.286;10.434;2023-01-28T02:32:50;1.80;;;1.00;;
73557;SDS011;61829;53.286;10.434;2023-01-28T02:35:28;2.17;;;1.15;;
73557;SDS011;61829;53.286;10.434;2023-01-28T02:38:04;3.65;;;1.30;;
73557;SDS011;61829;53.286;10.434;2023-01-28T02:40:45;3.03;;;1.00;;
73557;SDS011;61829;53.286;10.434;2023-01-28T02:46:11;3.33;;;1.13;;
73557;SDS011;61829;53.286;10.434;2023-01-28T02:48:57;1.10;;;1.10;;
73557;SDS011;61829;53.286;10.434;2023-01-28T02:51:37;1.17;;;1.08;;
73557;SDS011;61829;53.286;10.434;2023-01-28T02:54:08;1.92;;;1.15;;
73557;SDS011;61829;53.286;10.434;2023-01-28T03:05:07;2.80;;;1.30;;
73557;SDS011;61829;53.286;10.434;2023-01-28T03:07:45;1.95;;;1.08;;
73557;SDS011;61829;53.286;10.434;2023-01-28T03:10:13;1.50;;;0.93;;
73557;SDS011;61829;53.286;10.434;2023-01-28T03:12:42;2.75;;;0.90;;
73557;SDS011;61829;53.286;10.434;2023-01-28T03:15:29;3.88;;;1.42;;
73557;SDS011;61829;53.286;10.434;2023-01-28T03:21:16;14.00;;;6.50;;
73557;SDS011;61829;53.286;10.434;2023-01-28T03:24:25;10.00;;;4.53;;
73557;SDS011;61829;53.286;10.434;2023-01-28T03:30:42;7.70;;;2.13;;
73557;SDS011;61829;53.286;10.434;2023-01-28T03:33:31;5.18;;;1.05;;
73557;SDS011;61829;53.286;10.434;2023-01-28T03:36:19;2.00;;;1.17;;
73557;SDS011;61829;53.286;10.434;2023-01-28T03:39:04;4.57;;;1.50;;
73557;SDS011;61829;53.286;10.434;2023-01-28T03:41:31;1.70;;;1.20;;
73557;SDS011;61829;53.286;10.434;2023-01-28T03:43:56;1.27;;;1.08;;
73557;SDS011;61829;53.286;10.434;2023-01-28T03:46:23;1.90;;;1.20;;
73557;SDS011;61829;53.286;10.434;2023-01-28T03:48:49;3.95;;;1.00;;
73557;SDS011;61829;53.286;10.434;2023-01-28T03:51:16;1.40;;;1.05;;
73557;SDS011;61829;53.286;10.434;2023-01-28T03:53:42;2.75;;;1.05;;
73557;SDS011;61829;53.286;10.434;2023-01-28T03:56:08;1.83;;;1.20;;
73557;SDS011;61829;53.286;10.434;2023-01-28T03:58:34;3.65;;;1.10;;
73557;SDS011;61829;53.286;10.434;2023-01-28T04:01:21;1.63;;;1.05;;
73557;SDS011;61829;53.286;10.434;2023-01-28T04:03:47;1.30;;;1.20;;
73557;SDS011;61829;53.286;10.434;2023-01-28T04:06:13;2.17;;;1.10;;
73557;SDS011;61829;53.286;10.434;2023-01-28T04:08:39;1.35;;;1.08;;
73557;SDS011;61829;53.286;10.434;2023-01-28T04:11:10;2.83;;;1.17;;
73557;SDS011;61829;53.286;10.434;2023-01-28T04:13:47;2.15;;;1.08;;
73557;SDS011;61829;53.286;10.434;2023-01-28T04:16:14;2.78;;;1.35;;
73557;SDS011;61829;53.286;10.434;2023-01-28T04:18:42;2.92;;;0.98;;
73557;SDS011;61829;53.286;10.434;2023-01-28T04:21:08;2.15;;;1.10;;
73557;SDS011;61829;53.286;10.434;2023-01-28T04:23:34;1.70;;;1.05;;
73557;SDS011;61829;53.286;10.434;2023-01-28T04:26:01;2.70;;;1.15;;
73557;SDS011;61829;53.286;10.434;2023-01-28T04:30:54;4.65;;;1.77;;
73557;SDS011;61829;53.286;10.434;2023-01-28T04:33:21;2.58;;;1.23;;
73557;SDS011;61829;53.286;10.434;2023-01-28T04:35:48;2.67;;;1.50;;
73557;SDS011;61829;53.286;10.434;2023-01-28T04:38:14;4.57;;;1.50;;
73557;SDS011;61829;53.286;10.434;2023-01-28T04:40:40;4.18;;;1.40;;
73557;SDS011;61829;53.286;10.434;2023-01-28T04:43:06;3.25;;;1.40;;
73557;SDS011;61829;53.286;10.434;2023-01-28T04:45:32;1.95;;;1.13;;
73557;SDS011;61829;53.286;10.434;2023-01-28T04:47:58;1.45;;;1.00;;
73557;SDS011;61829;53.286;10.434;2023-01-28T04:50:24;4.15;;;1.23;;
73557;SDS011;61829;53.286;10.434;2023-01-28T04:52:50;2.00;;;1.10;;
73557;SDS011;61829;53.286;10.434;2023-01-28T04:55:17;1.40;;;0.90;;
73557;SDS011;61829;53.286;10.434;2023-01-28T04:57:42;1.73;;;1.23;;
73557;SDS011;61829;53.286;10.434;2023-01-28T05:00:09;1.40;;;1.02;;
73557;SDS011;61829;53.286;10.434;2023-01-28T05:02:35;2.00;;;1.15;;
73557;SDS011;61829;53.286;10.434;2023-01-28T05:05:01;2.28;;;1.30;;
73557;SDS011;61829;53.286;10.434;2023-01-28T05:07:29;4.80;;;1.38;;
73557;SDS011;61829;53.286;10.434;2023-01-28T05:09:55;2.53;;;1.15;;
73557;SDS011;61829;53.286;10.434;2023-01-28T05:12:21;2.35;;;1.10;;
73557;SDS011;61829;53.286;10.434;2023-01-28T05:14:47;2.60;;;1.20;;
73557;SDS011;61829;53.286;10.434;2023-01-28T05:17:13;2.20;;;1.10;;
73557;SDS011;61829;53.286;10.434;2023-01-28T05:19:39;2.00;;;1.20;;
73557;SDS011;61829;53.286;10.434;2023-01-28T05:22:05;2.28;;;1.08;;
73557;SDS011;61829;53.286;10.434;2023-01-28T05:24:32;1.13;;;0.93;;
73557;SDS011;61829;53.286;10.434;2023-01-28T05:26:57;1.45;;;1.02;;
73557;SDS011;61829;53.286;10.434;2023-01-28T05:29:24;2.08;;;1.25;;
73557;SDS011;61829;53.286;10.434;2023-01-28T05:31:50;2.78;;;1.10;;
73557;SDS011;61829;53.286;10.434;2023-01-28T05:34:16;2.17;;;1.10;;
73557;SDS011;61829;53.286;10.434;2023-01-28T05:36:42;2.17;;;1.02;;
73557;SDS011;61829;53.286;10.434;2023-01-28T05:39:09;4.78;;;1.55;;
73557;SDS011;61829;53.286;10.434;2023-01-28T05:44:40;1.33;;;1.10;;
73557;SDS011;61829;53.286;10.434;2023-01-28T05:47:06;5.63;;;1.77;;
73557;SDS011;61829;53.286;10.434;2023-01-28T05:49:32;5.07;;;1.40;;
73557;SDS011;61829;53.286;10.434;2023-01-28T05:51:58;4.22;;;1.58;;
73557;SDS011;61829;53.286;10.434;2023-01-28T05:54:26;2.70;;;1.60;;
73557;SDS011;61829;53.286;10.434;2023-01-28T05:56:53;3.55;;;1.70;;
73557;SDS011;61829;53.286;10.434;2023-01-28T05:59:19;3.58;;;1.88;;
73557;SDS011;61829;53.286;10.434;2023-01-28T06:01:45;3.08;;;1.63;;
73557;SDS011;61829;53.286;10.434;2023-01-28T06:04:11;3.90;;;1.50;;
73557;SDS011;61829;53.286;10.434;2023-01-28T06:06:37;4.57;;;1.55;;
73557;SDS011;61829;53.286;10.434;2023-01-28T06:09:04;2.97;;;1.50;;
73557;SDS011;61829;53.286;10.434;2023-01-28T06:11:30;3.08;;;1.40;;
73557;SDS011;61829;53.286;10.434;2023-01-28T06:13:59;5.00;;;1.55;;
73557;SDS011;61829;53.286;10.434;2023-01-28T06:16:25;3.22;;;1.23;;
73557;SDS011;61829;53.286;10.434;2023-01-28T06:18:51;3.22;;;1.35;;
73557;SDS011;61829;53.286;10.434;2023-01-28T06:21:17;3.15;;;1.20;;
73557;SDS011;61829;53.286;10.434;2023-01-28T06:23:43;5.32;;;1.50;;
73557;SDS011;61829;53.286;10.434;2023-01-28T06:26:09;3.88;;;1.25;;
73557;SDS011;61829;53.286;10.434;2023-01-28T06:28:35;3.90;;;1.30;;
73557;SDS011;61829;53.286;10.434;2023-01-28T06:31:01;2.47;;;1.40;;
73557;SDS011;61829;53.286;10.434;2023-01-28T06:33:27;4.25;;;1.38;;
73557;SDS011;61829;53.286;10.434;2023-01-28T06:35:53;4.85;;;1.77;;
73557;SDS011;61829;53.286;10.434;2023-01-28T06:38:20;2.88;;;1.40;;
73557;SDS011;61829;53.286;10.434;2023-01-28T06:40:50;4.75;;;1.75;;
73557;SDS011;61829;53.286;10.434;2023-01-28T06:43:21;4.70;;;1.60;;
73557;SDS011;61829;53.286;10.434;2023-01-28T06:45:55;3.30;;;1.55;;
73557;SDS011;61829;53.286;10.434;2023-01-28T06:48:22;1.77;;;1.13;;
73557;SDS011;61829;53.286;10.434;2023-01-28T06:50:49;3.33;;;1.40;;
73557;SDS011;61829;53.286;10.434;2023-01-28T06:53:16;3.05;;;1.50;;
73557;SDS011;61829;53.286;10.434;2023-01-28T06:55:43;2.58;;;1.52;;
73557;SDS011;61829;53.286;10.434;2023-01-28T06:58:10;2.40;;;1.50;;
73557;SDS011;61829;53.286;10.434;2023-01-28T07:00:36;2.97;;;1.60;;
73557;SDS011;61829;53.286;10.434;2023-01-28T07:03:03;4.97;;;1.58;;
73557;SDS011;61829;53.286;10.434;2023-01-28T07:05:29;3.92;;;1.63;;
73557;SDS011;61829;53.286;10.434;2023-01-28T07:07:55;3.30;;;2.00;;
73557;SDS011;61829;53.286;10.434;2023-01-28T07:10:21;3.60;;;1.70;;
73557;SDS011;61829;53.286;10.434;2023-01-28T07:12:49;5.35;;;2.28;;
73557;SDS011;61829;53.286;10.434;2023-01-28T07:15:24;3.30;;;2.10;;
73557;SDS011;61829;53.286;10.434;2023-01-28T07:17:50;3.75;;;2.40;;
73557;SDS011;61829;53.286;10.434;2023-01-28T07:20:16;4.55;;;2.63;;
73557;SDS011;61829;53.286;10.434;2023-01-28T07:22:43;7.28;;;2.45;;
73557;SDS011;61829;53.286;10.434;2023-01-28T07:25:10;3.78;;;1.98;;
73557;SDS011;61829;53.286;10.434;2023-01-28T07:27:38;5.78;;;2.28;;
73557;SDS011;61829;53.286;10.434;2023-01-28T07:30:04;3.55;;;2.38;;
73557;SDS011;61829;53.286;10.434;2023-01-28T07:32:31;3.40;;;2.40;;
73557;SDS011;61829;53.286;10.434;2023-01-28T07:34:57;7.40;;;2.60;;
73557;SDS011;61829;53.286;10.434;2023-01-28T07:37:24;7.03;;;2.55;;
73557;SDS011;61829;53.286;10.434;2023-01-28T07:39:50;4.18;;;2.47;;
73557;SDS011;61829;53.286;10.434;2023-01-28T07:42:16;4.18;;;2.30;;
73557;SDS011;61829;53.286;10.434;2023-01-28T07:44:42;4.32;;;2.78;;
73557;SDS011;61829;53.286;10.434;2023-01-28T07:47:09;5.00;;;3.15;;
73557;SDS011;61829;53.286;10.434;2023-01-28T07:49:35;9.60;;;3.65;;
73557;SDS011;61829;53.286;10.434;2023-01-28T07:52:04;4.43;;;2.88;;
73557;SDS011;61829;53.286;10.434;2023-01-28T07:54:34;6.43;;;3.53;;
73557;SDS011;61829;53.286;10.434;2023-01-28T07:57:00;5.88;;;3.42;;
73557;SDS011;61829;53.286;10.434;2023-01-28T07:59:26;7.47;;;3.60;;
73557;SDS011;61829;53.286;10.434;2023-01-28T08:01:52;7.63;;;3.40;;
73557;SDS011;61829;53.286;10.434;2023-01-28T08:04:18;7.13;;;3.33;;
73557;SDS011;61829;53.286;10.434;2023-01-28T08:06:45;4.40;;;2.85;;
73557;SDS011;61829;53.286;10.434;2023-01-28T08:09:10;4.50;;;2.20;;
73557;SDS011;61829;53.286;10.434;2023-01-28T08:11:37;5.55;;;2.50;;
73557;SDS011;61829;53.286;10.434;2023-01-28T08:14:04;5.72;;;2.40;;
73557;SDS011;61829;53.286;10.434;2023-01-28T08:16:30;6.82;;;2.10;;
73557;SDS011;61829;53.286;10.434;2023-01-28T08:18:56;5.95;;;2.17;;
73557;SDS011;61829;53.286;10.434;2023-01-28T08:21:22;4.30;;;2.17;;
73557;SDS011;61829;53.286;10.434;2023-01-28T08:23:48;3.97;;;1.88;;
73557;SDS011;61829;53.286;10.434;2023-01-28T08:26:15;6.63;;;1.67;;
73557;SDS011;61829;53.286;10.434;2023-01-28T08:28:42;8.63;;;2.10;;
73557;SDS011;61829;53.286;10.434;2023-01-28T08:31:09;3.75;;;1.90;;
73557;SDS011;61829;53.286;10.434;2023-01-28T08:33:35;3.50;;;1.92;;
73557;SDS011;61829;53.286;10.434;2023-01-28T08:36:02;5.15;;;1.92;;
73557;SDS011;61829;53.286;10.434;2023-01-28T08:38:29;4.43;;;2.10;;
73557;SDS011;61829;53.286;10.434;2023-01-28T08:40:55;5.28;;;2.38;;
73557;SDS011;61829;53.286;10.434;2023-01-28T08:43:22;3.28;;;1.67;;
73557;SDS011;61829;53.286;10.434;2023-01-28T08:45:49;4.47;;;2.00;;
73557;SDS011;61829;53.286;10.434;2023-01-28T08:48:16;4.55;;;2.20;;
73557;SDS011;61829;53.286;10.434;2023-01-28T08:50:43;5.63;;;2.45;;
73557;SDS011;61829;53.286;10.434;2023-01-28T08:53:10;5.00;;;2.13;;
73557;SDS011;61829;53.286;10.434;2023-01-28T08:55:45;2.75;;;1.80;;
73557;SDS011;61829;53.286;10.434;2023-01-28T08:58:13;3.30;;;1.83;;
73557;SDS011;61829;53.286;10.434;2023-01-28T09:00:41;5.53;;;1.80;;
73557;SDS011;61829;53.286;10.434;2023-01-28T09:03:08;3.38;;;2.00;;
73557;SDS011;61829;53.286;10.434;2023-01-28T09:05:35;3.30;;;1.63;;
73557;SDS011;61829;53.286;10.434;2023-01-28T09:08:06;8.82;;;3.13;;
73557;SDS011;61829;53.286;10.434;2023-01-28T09:10:34;5.53;;;2.80;;
73557;SDS011;61829;53.286;10.434;2023-01-28T09:13:05;5.97;;;1.85;;
73557;SDS011;61829;53.286;10.434;2023-01-28T09:15:36;4.78;;;1.67;;
73557;SDS011;61829;53.286;10.434;2023-01-28T09:18:04;3.40;;;1.52;;
73557;SDS011;61829;53.286;10.434;2023-01-28T09:20:31;6.90;;;1.90;;
73557;SDS011;61829;53.286;10.434;2023-01-28T09:22:58;2.80;;;1.80;;
73557;SDS011;61829;53.286;10.434;2023-01-28T09:25:25;4.25;;;1.88;;
73557;SDS011;61829;53.286;10.434;2023-01-28T09:27:51;5.32;;;1.80;;
73557;SDS011;61829;53.286;10.434;2023-01-28T09:30:17;3.08;;;1.73;;
73557;SDS011;61829;53.286;10.434;2023-01-28T09:32:43;2.40;;;1.60;;
73557;SDS011;61829;53.286;10.434;2023-01-28T09:35:09;5.10;;;1.90;;
73557;SDS011;61829;53.286;10.434;2023-01-28T09:37:36;3.80;;;1.45;;
73557;SDS011;61829;53.286;10.434;2023-01-28T09:40:02;3.65;;;1.60;;
73557;SDS011;61829;53.286;10.434;2023-01-28T09:45:35;2.67;;;1.55;;
73557;SDS011;61829;53.286;10.434;2023-01-28T09:48:05;6.05;;;1.70;;
73557;SDS011;61829;53.286;10.434;2023-01-28T09:50:39;3.78;;;1.40;;
73557;SDS011;61829;53.286;10.434;2023-01-28T09:53:15;2.53;;;1.67;;
73557;SDS011;61829;53.286;10.434;2023-01-28T09:55:59;2.67;;;1.48;;
73557;SDS011;61829;53.286;10.434;2023-01-28T09:58:29;2.38;;;1.50;;
73557;SDS011;61829;53.286;10.434;2023-01-28T10:12:15;18.13;;;5.95;;
73557;SDS011;61829;53.286;10.434;2023-01-28T10:14:55;18.67;;;5.97;;
73557;SDS011;61829;53.286;10.434;2023-01-28T10:17:42;11.27;;;5.15;;
73557;SDS011;61829;53.286;10.434;2023-01-28T10:22:42;8.13;;;4.07;;
73557;SDS011;61829;53.286;10.434;2023-01-28T10:25:18;9.18;;;4.35;;
73557;SDS011;61829;53.286;10.434;2023-01-28T10:27:47;8.45;;;4.70;;
73557;SDS011;61829;53.286;10.434;2023-01-28T10:30:20;6.05;;;4.10;;
73557;SDS011;61829;53.286;10.434;2023-01-28T10:32:51;6.97;;;4.55;;
73557;SDS011;61829;53.286;10.434;2023-01-28T10:35:22;6.53;;;4.32;;
73557;SDS011;61829;53.286;10.434;2023-01-28T10:37:49;6.68;;;4.38;;
73557;SDS011;61829;53.286;10.434;2023-01-28T10:40:21;10.10;;;4.45;;
73557;SDS011;61829;53.286;10.434;2023-01-28T10:42:47;6.78;;;4.22;;
73557;SDS011;61829;53.286;10.434;2023-01-28T10:45:15;6.60;;;4.63;;
73557;SDS011;61829;53.286;10.434;2023-01-28T10:47:50;6.75;;;4.63;;
73557;SDS011;61829;53.286;10.434;2023-01-28T10:50:21;8.57;;;4.50;;
73557;SDS011;61829;53.286;10.434;2023-01-28T10:52:56;6.43;;;4.47;;
73557;SDS011;61829;53.286;10.434;2023-01-28T10:55:23;6.55;;;5.07;;
73557;SDS011;61829;53.286;10.434;2023-01-28T10:57:52;12.25;;;4.65;;
73557;SDS011;61829;53.286;10.434;2023-01-28T11:02:46;7.97;;;4.53;;
73557;SDS011;61829;53.286;10.434;2023-01-28T11:05:17;5.85;;;3.88;;
73557;SDS011;61829;53.286;10.434;2023-01-28T11:07:46;5.63;;;3.80;;
73557;SDS011;61829;53.286;10.434;2023-01-28T11:10:34;7.63;;;3.92;;
73557;SDS011;61829;53.286;10.434;2023-01-28T11:13:03;5.53;;;3.47;;
73557;SDS011;61829;53.286;10.434;2023-01-28T11:15:30;5.38;;;3.60;;
73557;SDS011;61829;53.286;10.434;2023-01-28T11:17:58;5.68;;;3.35;;
73557;SDS011;61829;53.286;10.434;2023-01-28T11:20:28;8.02;;;3.88;;
73557;SDS011;61829;53.286;10.434;2023-01-28T11:23:00;5.70;;;4.00;;
73557;SDS011;61829;53.286;10.434;2023-01-28T11:27:57;9.32;;;3.20;;
73557;SDS011;61829;53.286;10.434;2023-01-28T11:35:29;6.35;;;3.10;;
73557;SDS011;61829;53.286;10.434;2023-01-28T11:37:57;7.60;;;4.40;;
73557;SDS011;61829;53.286;10.434;2023-01-28T11:40:24;4.85;;;2.97;;
73557;SDS011;61829;53.286;10.434;2023-01-28T11:42:51;4.90;;;2.97;;
73557;SDS011;61829;53.286;10.434;2023-01-28T11:45:19;4.55;;;3.20;;
73557;SDS011;61829;53.286;10.434;2023-01-28T11:48:03;8.70;;;3.75;;
73557;SDS011;61829;53.286;10.434;2023-01-28T11:59:09;6.32;;;2.80;;
73557;SDS011;61829;53.286;10.434;2023-01-28T12:02:09;6.30;;;3.08;;
73557;SDS011;61829;53.286;10.434;2023-01-28T12:13:04;5.43;;;2.85;;
73557;SDS011;61829;53.286;10.434;2023-01-28T12:26:48;5.28;;;2.70;;
73557;SDS011;61829;53.286;10.434;2023-01-28T12:34:48;5.07;;;2.60;;
73557;SDS011;61829;53.286;10.434;2023-01-28T12:45:46;4.75;;;2.60;;
73557;SDS011;61829;53.286;10.434;2023-01-28T12:48:23;5.85;;;2.70;;
73557;SDS011;61829;53.286;10.434;2023-01-28T12:51:00;4.30;;;2.80;;
73557;SDS011;61829;53.286;10.434;2023-01-28T12:56:34;5.70;;;2.67;;
73557;SDS011;61829;53.286;10.434;2023-01-28T13:01:41;5.60;;;3.22;;
73557;SDS011;61829;53.286;10.434;2023-01-28T13:07:04;5.65;;;2.10;;
73557;SDS011;61829;53.286;10.434;2023-01-28T13:09:42;4.95;;;3.20;;
73557;SDS011;61829;53.286;10.434;2023-01-28T13:12:14;5.63;;;3.30;;
73557;SDS011;61829;53.286;10.434;2023-01-28T13:17:08;6.40;;;3.45;;
73557;SDS011;61829;53.286;10.434;2023-01-28T13:19:37;5.70;;;3.00;;
73557;SDS011;61829;53.286;10.434;2023-01-28T13:22:09;5.03;;;2.85;;
73557;SDS011;61829;53.286;10.434;2023-01-28T13:24:37;4.50;;;2.80;;
73557;SDS011;61829;53.286;10.434;2023-01-28T13:27:11;5.90;;;3.53;;
73557;SDS011;61829;53.286;10.434;2023-01-28T13:29:46;6.25;;;3.38;;
73557;SDS011;61829;53.286;10.434;2023-01-28T13:32:27;4.63;;;3.30;;
73557;SDS011;61829;53.286;10.434;2023-01-28T13:35:23;5.35;;;3.00;;
73557;SDS011;61829;53.286;10.434;2023-01-28T13:38:16;5.50;;;2.88;;
73557;SDS011;61829;53.286;10.434;2023-01-28T13:40:54;5.13;;;2.80;;
73557;SDS011;61829;53.286;10.434;2023-01-28T13:46:04;7.28;;;3.28;;
73557;SDS011;61829;53.286;10.434;2023-01-28T13:48:51;5.28;;;2.97;;
73557;SDS011;61829;53.286;10.434;2023-01-28T13:51:21;6.38;;;3.13;;
73557;SDS011;61829;53.286;10.434;2023-01-28T13:53:50;4.78;;;3.10;;
73557;SDS011;61829;53.286;10.434;2023-01-28T13:56:24;3.85;;;2.47;;
73557;SDS011;61829;53.286;10.434;2023-01-28T13:59:12;5.60;;;3.05;;
73557;SDS011;61829;53.286;10.434;2023-01-28T14:04:35;3.85;;;2.72;;
73557;SDS011;61829;53.286;10.434;2023-01-28T14:18:26;5.10;;;3.15;;
73557;SDS011;61829;53.286;10.434;2023-01-28T14:20:58;8.80;;;3.53;;
73557;SDS011;61829;53.286;10.434;2023-01-28T14:23:26;7.15;;;3.38;;
73557;SDS011;61829;53.286;10.434;2023-01-28T14:31:30;6.25;;;3.00;;
73557;SDS011;61829;53.286;10.434;2023-01-28T14:34:19;5.00;;;3.00;;
73557;SDS011;61829;53.286;10.434;2023-01-28T14:36:46;5.78;;;3.47;;
73557;SDS011;61829;53.286;10.434;2023-01-28T14:39:18;5.47;;;3.50;;
73557;SDS011;61829;53.286;10.434;2023-01-28T14:41:46;5.22;;;3.53;;
73557;SDS011;61829;53.286;10.434;2023-01-28T14:53:04;8.10;;;3.95;;
73557;SDS011;61829;53.286;10.434;2023-01-28T14:58:30;12.57;;;5.50;;
73557;SDS011;61829;53.286;10.434;2023-01-28T15:01:19;7.07;;;4.40;;
73557;SDS011;61829;53.286;10.434;2023-01-28T15:03:47;8.27;;;3.58;;
73557;SDS011;61829;53.286;10.434;2023-01-28T15:06:23;9.05;;;4.75;;
73557;SDS011;61829;53.286;10.434;2023-01-28T15:09:04;6.82;;;4.20;;
73557;SDS011;61829;53.286;10.434;2023-01-28T15:11:38;9.68;;;4.90;;
73557;SDS011;61829;53.286;10.434;2023-01-28T15:14:11;9.75;;;5.32;;
73557;SDS011;61829;53.286;10.434;2023-01-28T15:16:45;5.95;;;4.30;;
73557;SDS011;61829;53.286;10.434;2023-01-28T15:19:13;8.70;;;4.15;;
73557;SDS011;61829;53.286;10.434;2023-01-28T15:21:40;6.28;;;4.03;;
73557;SDS011;61829;53.286;10.434;2023-01-28T15:24:11;12.90;;;6.40;;
73557;SDS011;61829;53.286;10.434;2023-01-28T15:26:44;7.70;;;3.90;;
73557;SDS011;61829;53.286;10.434;2023-01-28T15:31:55;6.95;;;4.28;;
73557;SDS011;61829;53.286;10.434;2023-01-28T15:34:21;12.27;;;5.72;;
73557;SDS011;61829;53.286;10.434;2023-01-28T15:36:48;8.68;;;5.18;;
73557;SDS011;61829;53.286;10.434;2023-01-28T15:39:19;10.85;;;5.40;;
73557;SDS011;61829;53.286;10.434;2023-01-28T15:41:51;9.30;;;5.20;;
73557;SDS011;61829;53.286;10.434;2023-01-28T15:47:13;12.05;;;7.05;;
73557;SDS011;61829;53.286;10.434;2023-01-28T15:49:43;10.73;;;5.70;;
73557;SDS011;61829;53.286;10.434;2023-01-28T15:52:15;10.02;;;5.57;;
73557;SDS011;61829;53.286;10.434;2023-01-28T15:54:41;8.25;;;5.82;;
73557;SDS011;61829;53.286;10.434;2023-01-28T15:59:42;10.55;;;6.03;;
73557;SDS011;61829;53.286;10.434;2023-01-28T16:05:00;11.45;;;6.15;;
73557;SDS011;61829;53.286;10.434;2023-01-28T16:07:29;10.35;;;6.32;;
73557;SDS011;61829;53.286;10.434;2023-01-28T16:09:58;13.30;;;6.28;;
73557;SDS011;61829;53.286;10.434;2023-01-28T16:12:26;10.95;;;5.97;;
73557;SDS011;61829;53.286;10.434;2023-01-28T16:15:02;9.70;;;5.63;;
73557;SDS011;61829;53.286;10.434;2023-01-28T16:17:37;10.02;;;6.82;;
73557;SDS011;61829;53.286;10.434;2023-01-28T16:20:25;11.57;;;6.53;;
73557;SDS011;61829;53.286;10.434;2023-01-28T16:22:54;12.52;;;6.63;;
73557;SDS011;61829;53.286;10.434;2023-01-28T16:27:54;12.80;;;7.30;;
73557;SDS011;61829;53.286;10.434;2023-01-28T16:30:21;13.95;;;6.63;;
73557;SDS011;61829;53.286;10.434;2023-01-28T16:32:47;14.73;;;8.52;;
73557;SDS011;61829;53.286;10.434;2023-01-28T16:35:20;15.82;;;8.40;;
73557;SDS011;61829;53.286;10.434;2023-01-28T16:37:48;18.05;;;8.50;;
73557;SDS011;61829;53.286;10.434;2023-01-28T16:40:16;17.98;;;9.75;;
73557;SDS011;61829;53.286;10.434;2023-01-28T16:42:44;18.23;;;9.07;;
73557;SDS011;61829;53.286;10.434;2023-01-28T16:45:15;17.65;;;8.65;;
73557;SDS011;61829;53.286;10.434;2023-01-28T16:47:43;15.43;;;8.45;;
73557;SDS011;61829;53.286;10.434;2023-01-28T16:50:11;13.98;;;8.48;;
73557;SDS011;61829;53.286;10.434;2023-01-28T16:52:39;18.40;;;8.63;;
73557;SDS011;61829;53.286;10.434;2023-01-28T16:55:10;14.55;;;8.48;;
73557;SDS011;61829;53.286;10.434;2023-01-28T16:57:38;14.38;;;8.82;;
73557;SDS011;61829;53.286;10.434;2023-01-28T17:00:05;20.65;;;9.05;;
73557;SDS011;61829;53.286;10.434;2023-01-28T17:02:32;15.25;;;8.40;;
73557;SDS011;61829;53.286;10.434;2023-01-28T17:04:58;15.38;;;8.68;;
73557;SDS011;61829;53.286;10.434;2023-01-28T17:07:24;17.58;;;9.85;;
73557;SDS011;61829;53.286;10.434;2023-01-28T17:10:09;19.95;;;9.30;;
73557;SDS011;61829;53.286;10.434;2023-01-28T17:12:36;18.65;;;9.30;;
73557;SDS011;61829;53.286;10.434;2023-01-28T17:15:01;15.43;;;8.55;;
73557;SDS011;61829;53.286;10.434;2023-01-28T17:17:28;17.45;;;9.85;;
73557;SDS011;61829;53.286;10.434;2023-01-28T17:19:54;17.90;;;9.35;;
73557;SDS011;61829;53.286;10.434;2023-01-28T17:22:20;16.48;;;9.43;;
73557;SDS011;61829;53.286;10.434;2023-01-28T17:24:46;15.43;;;9.00;;
73557;SDS011;61829;53.286;10.434;2023-01-28T17:27:12;15.88;;;9.68;;
73557;SDS011;61829;53.286;10.434;2023-01-28T17:29:39;17.02;;;10.43;;
73557;SDS011;61829;53.286;10.434;2023-01-28T17:32:05;17.75;;;9.80;;
73557;SDS011;61829;53.286;10.434;2023-01-28T17:34:31;17.13;;;10.60;;